Phoenix Cross — MRBQ7 — position and weather

sailwx.info

Track history (hours):
 
Tides and Currents Weather Stations Pressure Air Temp Water Temp Dewpoint Dewpoint Depression Visibility Wind Speed Wind Dir Waves Ship Positions

Phoenix Cross

Last reported at 2015-Jan-29 15:34 UTC. Time now 2015-Jan-31 22:37 UTC.
Position N 54°35' W 001°13'.

Length 30 m; draft 5 m.

Type: Ship. MMSI: 235067452.

Date/timePositionNaut miles runAvg speedWind from/ knotsBaromVisibWave heightAir tempDewpointWater temp
2015-Jan-29 15:34N 54°35' W 001°13'0 0.0
2015-Jan-29 14:33N 54°35' W 001°13'0 0.2
2015-Jan-29 13:33N 54°35' W 001°13'1 1.1
2015-Jan-29 12:34N 54°35' W 001°15'1 1.2
2015-Jan-29 11:32N 54°35' W 001°13'0 0.0
2015-Jan-29 10:34N 54°35' W 001°13'0 0.0
2015-Jan-29 09:32N 54°35' W 001°13'0 0.0
2015-Jan-29 08:33N 54°35' W 001°13'0 0.0
2015-Jan-29 06:11N 54°35' W 001°13'2 0.1
2015-Jan-28 09:34N 54°37' W 001°10'2 1.6
2015-Jan-28 08:05N 54°35' W 001°13'3 5.5
2015-Jan-28 07:32N 54°37' W 001°10'1 0.2
2015-Jan-28 04:27N 54°38' W 001°09'4 0.3
2015-Jan-27 16:15N 54°35' W 001°13'0 0.0
2015-Jan-27 15:32N 54°35' W 001°13'0 0.0
2015-Jan-27 14:33N 54°35' W 001°13'0 0.0
2015-Jan-27 13:32N 54°35' W 001°13'0 0.0
2015-Jan-27 12:33N 54°35' W 001°13'0 0.0
2015-Jan-27 11:33N 54°35' W 001°13'0 0.0
2015-Jan-27 10:33N 54°35' W 001°13'0 0.0
2015-Jan-27 09:33N 54°35' W 001°13'1 0.7
2015-Jan-27 08:34N 54°35' W 001°12'3 2.8
2015-Jan-27 07:34N 54°38' W 001°09'3 0.2
2015-Jan-26 15:34N 54°35' W 001°13'0 0.0
2015-Jan-26 14:34N 54°35' W 001°13'0 0.0
2015-Jan-26 13:30N 54°35' W 001°13'0 0.0
2015-Jan-26 12:32N 54°35' W 001°13'0 0.0
2015-Jan-26 11:32N 54°35' W 001°13'0 0.5
2015-Jan-26 10:33N 54°35' W 001°12'2 1.6
2015-Jan-26 09:32N 54°36' W 001°10'2 2.0
2015-Jan-26 08:32N 54°35' W 001°13'1 0.5
2015-Jan-26 06:30N 54°35' W 001°11'1 0.1
2015-Jan-25 14:33N 54°35' W 001°13'0 0.0
2015-Jan-25 13:33N 54°35' W 001°13'0 0.0
2015-Jan-25 12:33N 54°35' W 001°13'0 0.0
2015-Jan-25 11:33N 54°35' W 001°13'0 0.0
2015-Jan-25 10:32N 54°35' W 001°13'0 0.0
2015-Jan-25 09:32N 54°35' W 001°13'4 1.1
2015-Jan-25 05:33N 54°39' W 001°09'4 0.3
2015-Jan-24 16:08N 54°35' W 001°13'0 0.0
2015-Jan-24 15:32N 54°35' W 001°13'3 3.2
2015-Jan-24 14:33N 54°37' W 001°10'3 3.1
2015-Jan-24 13:33N 54°35' W 001°13'0 0.0
2015-Jan-24 12:33N 54°35' W 001°13'0 0.0
2015-Jan-24 11:33N 54°35' W 001°13'0 0.0
2015-Jan-24 10:33N 54°35' W 001°13'0 0.0
2015-Jan-24 09:34N 54°35' W 001°13'0 0.0
2015-Jan-24 08:32N 54°35' W 001°13'0 0.0
2015-Jan-24 07:07N 54°35' W 001°13'0 0.0
2015-Jan-24 06:26N 54°35' W 001°13'5 0.3
2015-Jan-23 15:33N 54°39' W 001°09'1 0.9
2015-Jan-23 14:34N 54°40' W 001°08'5 5.3
2015-Jan-23 13:32N 54°35' W 001°13'0 0.0
2015-Jan-23 12:32N 54°35' W 001°13'0 0.0
2015-Jan-23 11:34N 54°35' W 001°13'0 0.0
2015-Jan-23 10:33N 54°35' W 001°13'0 0.0
2015-Jan-23 09:33N 54°35' W 001°13'3 3.1
2015-Jan-23 08:33N 54°38' W 001°10'0 0.4
2015-Jan-23 07:33N 54°38' W 001°10'4 0.2
2015-Jan-22 16:05N 54°35' W 001°13'0 0.0
2015-Jan-22 15:31N 54°35' W 001°13'1 1.1
2015-Jan-22 14:33N 54°35' W 001°11'1 1.0
2015-Jan-22 13:33N 54°35' W 001°13'0 0.0
2015-Jan-22 12:32N 54°35' W 001°13'0 0.0
2015-Jan-22 11:34N 54°35' W 001°13'0 0.0
2015-Jan-22 10:33N 54°35' W 001°13'0 0.0
2015-Jan-22 09:33N 54°35' W 001°13'1 0.0
2015-Jan-21 16:10N 54°35' W 001°12'6 9.3
2015-Jan-21 15:34N 54°41' W 001°09'2 2.4
2015-Jan-21 14:33N 54°38' W 001°09'1 0.6
2015-Jan-21 13:33N 54°38' W 001°10'3 2.7
2015-Jan-21 12:32N 54°35' W 001°12'1 0.6
2015-Jan-21 11:32N 54°35' W 001°13'0 0.0
2015-Jan-21 10:34N 54°35' W 001°13'0 0.0
2015-Jan-21 09:32N 54°35' W 001°13'2 0.7
2015-Jan-21 06:24N 54°36' W 001°09'4 1.1
2015-Jan-21 02:11N 54°41' W 001°09'2 2.9
2015-Jan-21 01:32N 54°42' W 001°12'4 3.6
2015-Jan-21 00:28N 54°38' W 001°09'2 0.4
2015-Jan-20 18:20N 54°36' W 001°09'1 1.6
2015-Jan-20 17:31N 54°38' W 001°09'2 2.2
2015-Jan-20 16:32N 54°36' W 001°11'1 1.2
2015-Jan-20 15:31N 54°35' W 001°13'0 0.0
2015-Jan-20 14:32N 54°35' W 001°13'0 0.0
2015-Jan-20 13:33N 54°35' W 001°13'0 0.0
2015-Jan-20 12:32N 54°35' W 001°13'0 0.0
2015-Jan-20 11:33N 54°35' W 001°13'0 0.0
2015-Jan-20 10:33N 54°35' W 001°13'0 0.0
2015-Jan-20 09:32N 54°35' W 001°13'2 2.1
2015-Jan-20 08:32N 54°36' W 001°10'1 1.2
2015-Jan-20 07:33N 54°37' W 001°10'  
Track history (hours):
 
Tides and Currents Weather Stations Pressure Air Temp Water Temp Dewpoint Dewpoint Depression Visibility Wind Speed Wind Dir Waves Ship Positions

Phoenix Cross

Last reported at 2015-Jan-29 15:34 UTC. Time now 2015-Jan-31 22:37 UTC.
Position N 54°35' W 001°13'.

Length 30 m; draft 5 m.

Type: Ship. MMSI: 235067452.

Date/timePositionNaut miles runAvg speedWind from/ knotsBaromVisibWave heightAir tempDewpointWater temp
2015-Jan-29 15:34N 54°35' W 001°13'0 0.0
2015-Jan-29 14:33N 54°35' W 001°13'0 0.2
2015-Jan-29 13:33N 54°35' W 001°13'1 1.1
2015-Jan-29 12:34N 54°35' W 001°15'1 1.2
2015-Jan-29 11:32N 54°35' W 001°13'0 0.0
2015-Jan-29 10:34N 54°35' W 001°13'0 0.0
2015-Jan-29 09:32N 54°35' W 001°13'0 0.0
2015-Jan-29 08:33N 54°35' W 001°13'0 0.0
2015-Jan-29 06:11N 54°35' W 001°13'2 0.1
2015-Jan-28 09:34N 54°37' W 001°10'2 1.6
2015-Jan-28 08:05N 54°35' W 001°13'3 5.5
2015-Jan-28 07:32N 54°37' W 001°10'1 0.2
2015-Jan-28 04:27N 54°38' W 001°09'4 0.3
2015-Jan-27 16:15N 54°35' W 001°13'0 0.0
2015-Jan-27 15:32N 54°35' W 001°13'0 0.0
2015-Jan-27 14:33N 54°35' W 001°13'0 0.0
2015-Jan-27 13:32N 54°35' W 001°13'0 0.0
2015-Jan-27 12:33N 54°35' W 001°13'0 0.0
2015-Jan-27 11:33N 54°35' W 001°13'0 0.0
2015-Jan-27 10:33N 54°35' W 001°13'0 0.0
2015-Jan-27 09:33N 54°35' W 001°13'1 0.7
2015-Jan-27 08:34N 54°35' W 001°12'3 2.8
2015-Jan-27 07:34N 54°38' W 001°09'3 0.2
2015-Jan-26 15:34N 54°35' W 001°13'0 0.0
2015-Jan-26 14:34N 54°35' W 001°13'0 0.0
2015-Jan-26 13:30N 54°35' W 001°13'0 0.0
2015-Jan-26 12:32N 54°35' W 001°13'0 0.0
2015-Jan-26 11:32N 54°35' W 001°13'0 0.5
2015-Jan-26 10:33N 54°35' W 001°12'2 1.6
2015-Jan-26 09:32N 54°36' W 001°10'2 2.0
2015-Jan-26 08:32N 54°35' W 001°13'1 0.5
2015-Jan-26 06:30N 54°35' W 001°11'1 0.1
2015-Jan-25 14:33N 54°35' W 001°13'0 0.0
2015-Jan-25 13:33N 54°35' W 001°13'0 0.0
2015-Jan-25 12:33N 54°35' W 001°13'0 0.0
2015-Jan-25 11:33N 54°35' W 001°13'0 0.0
2015-Jan-25 10:32N 54°35' W 001°13'0 0.0
2015-Jan-25 09:32N 54°35' W 001°13'4 1.1
2015-Jan-25 05:33N 54°39' W 001°09'4 0.3
2015-Jan-24 16:08N 54°35' W 001°13'0 0.0
2015-Jan-24 15:32N 54°35' W 001°13'3 3.2
2015-Jan-24 14:33N 54°37' W 001°10'3 3.1
2015-Jan-24 13:33N 54°35' W 001°13'0 0.0
2015-Jan-24 12:33N 54°35' W 001°13'0 0.0
2015-Jan-24 11:33N 54°35' W 001°13'0 0.0
2015-Jan-24 10:33N 54°35' W 001°13'0 0.0
2015-Jan-24 09:34N 54°35' W 001°13'0 0.0
2015-Jan-24 08:32N 54°35' W 001°13'0 0.0
2015-Jan-24 07:07N 54°35' W 001°13'0 0.0
2015-Jan-24 06:26N 54°35' W 001°13'5 0.3
2015-Jan-23 15:33N 54°39' W 001°09'1 0.9
2015-Jan-23 14:34N 54°40' W 001°08'5 5.3
2015-Jan-23 13:32N 54°35' W 001°13'0 0.0
2015-Jan-23 12:32N 54°35' W 001°13'0 0.0
2015-Jan-23 11:34N 54°35' W 001°13'0 0.0
2015-Jan-23 10:33N 54°35' W 001°13'0 0.0
2015-Jan-23 09:33N 54°35' W 001°13'3 3.1
2015-Jan-23 08:33N 54°38' W 001°10'0 0.4
2015-Jan-23 07:33N 54°38' W 001°10'4 0.2
2015-Jan-22 16:05N 54°35' W 001°13'0 0.0
2015-Jan-22 15:31N 54°35' W 001°13'1 1.1
2015-Jan-22 14:33N 54°35' W 001°11'1 1.0
2015-Jan-22 13:33N 54°35' W 001°13'0 0.0
2015-Jan-22 12:32N 54°35' W 001°13'0 0.0
2015-Jan-22 11:34N 54°35' W 001°13'0 0.0
2015-Jan-22 10:33N 54°35' W 001°13'0 0.0
2015-Jan-22 09:33N 54°35' W 001°13'1 0.0
2015-Jan-21 16:10N 54°35' W 001°12'6 9.3
2015-Jan-21 15:34N 54°41' W 001°09'2 2.4
2015-Jan-21 14:33N 54°38' W 001°09'1 0.6
2015-Jan-21 13:33N 54°38' W 001°10'3 2.7
2015-Jan-21 12:32N 54°35' W 001°12'1 0.6
2015-Jan-21 11:32N 54°35' W 001°13'0 0.0
2015-Jan-21 10:34N 54°35' W 001°13'0 0.0
2015-Jan-21 09:32N 54°35' W 001°13'2 0.7
2015-Jan-21 06:24N 54°36' W 001°09'4 1.1
2015-Jan-21 02:11N 54°41' W 001°09'2 2.9
2015-Jan-21 01:32N 54°42' W 001°12'4 3.6
2015-Jan-21 00:28N 54°38' W 001°09'2 0.4
2015-Jan-20 18:20N 54°36' W 001°09'1 1.6
2015-Jan-20 17:31N 54°38' W 001°09'2 2.2
2015-Jan-20 16:32N 54°36' W 001°11'1 1.2
2015-Jan-20 15:31N 54°35' W 001°13'0 0.0
2015-Jan-20 14:32N 54°35' W 001°13'0 0.0
2015-Jan-20 13:33N 54°35' W 001°13'0 0.0
2015-Jan-20 12:32N 54°35' W 001°13'0 0.0
2015-Jan-20 11:33N 54°35' W 001°13'0 0.0
2015-Jan-20 10:33N 54°35' W 001°13'0 0.0
2015-Jan-20 09:32N 54°35' W 001°13'2 2.1
2015-Jan-20 08:32N 54°36' W 001°10'1 1.2
2015-Jan-20 07:33N 54°37' W 001°10'  

Dump ship's entire track history